sensor_id;sensor_type;location;lat;lon;timestamp;P1;durP1;ratioP1;P2;durP2;ratioP2
12163;SDS011;6145;50.192;10.064;2024-01-10T00:01:20;13.40;;;9.97;;
12163;SDS011;6145;50.192;10.064;2024-01-10T00:03:54;14.77;;;10.23;;
12163;SDS011;6145;50.192;10.064;2024-01-10T00:06:21;15.37;;;10.40;;
12163;SDS011;6145;50.192;10.064;2024-01-10T00:08:50;16.67;;;10.67;;
12163;SDS011;6145;50.192;10.064;2024-01-10T00:11:17;14.93;;;10.10;;
12163;SDS011;6145;50.192;10.064;2024-01-10T00:13:46;15.90;;;10.70;;
12163;SDS011;6145;50.192;10.064;2024-01-10T00:16:12;15.87;;;10.13;;
12163;SDS011;6145;50.192;10.064;2024-01-10T00:18:40;14.03;;;10.43;;
12163;SDS011;6145;50.192;10.064;2024-01-10T00:21:07;13.77;;;9.57;;
12163;SDS011;6145;50.192;10.064;2024-01-10T00:23:33;15.47;;;10.17;;
12163;SDS011;6145;50.192;10.064;2024-01-10T00:26:03;15.33;;;10.60;;
12163;SDS011;6145;50.192;10.064;2024-01-10T00:28:30;13.70;;;9.63;;
12163;SDS011;6145;50.192;10.064;2024-01-10T00:30:56;13.97;;;9.97;;
12163;SDS011;6145;50.192;10.064;2024-01-10T00:33:23;14.20;;;9.93;;
12163;SDS011;6145;50.192;10.064;2024-01-10T00:35:50;16.23;;;10.23;;
12163;SDS011;6145;50.192;10.064;2024-01-10T00:38:17;14.07;;;9.37;;
12163;SDS011;6145;50.192;10.064;2024-01-10T00:40:43;13.97;;;9.27;;
12163;SDS011;6145;50.192;10.064;2024-01-10T00:43:11;15.33;;;10.10;;
12163;SDS011;6145;50.192;10.064;2024-01-10T00:45:38;12.47;;;9.23;;
12163;SDS011;6145;50.192;10.064;2024-01-10T00:48:05;15.27;;;9.40;;
12163;SDS011;6145;50.192;10.064;2024-01-10T00:50:32;17.40;;;10.27;;
12163;SDS011;6145;50.192;10.064;2024-01-10T00:52:59;12.83;;;9.03;;
12163;SDS011;6145;50.192;10.064;2024-01-10T00:55:26;13.60;;;9.40;;
12163;SDS011;6145;50.192;10.064;2024-01-10T00:57:53;13.70;;;9.37;;
12163;SDS011;6145;50.192;10.064;2024-01-10T01:00:21;13.40;;;10.73;;
12163;SDS011;6145;50.192;10.064;2024-01-10T01:02:48;13.67;;;9.70;;
12163;SDS011;6145;50.192;10.064;2024-01-10T01:05:14;12.23;;;8.37;;
12163;SDS011;6145;50.192;10.064;2024-01-10T01:07:41;13.00;;;9.03;;
12163;SDS011;6145;50.192;10.064;2024-01-10T01:10:08;14.90;;;9.50;;
12163;SDS011;6145;50.192;10.064;2024-01-10T01:12:35;13.43;;;8.37;;
12163;SDS011;6145;50.192;10.064;2024-01-10T01:15:02;14.47;;;9.27;;
12163;SDS011;6145;50.192;10.064;2024-01-10T01:17:31;14.77;;;10.10;;
12163;SDS011;6145;50.192;10.064;2024-01-10T01:19:59;12.83;;;9.07;;
12163;SDS011;6145;50.192;10.064;2024-01-10T01:22:26;11.93;;;8.83;;
12163;SDS011;6145;50.192;10.064;2024-01-10T01:24:52;13.83;;;9.97;;
12163;SDS011;6145;50.192;10.064;2024-01-10T01:27:19;13.97;;;9.33;;
12163;SDS011;6145;50.192;10.064;2024-01-10T01:29:46;15.03;;;9.10;;
12163;SDS011;6145;50.192;10.064;2024-01-10T01:32:13;13.37;;;9.20;;
12163;SDS011;6145;50.192;10.064;2024-01-10T01:34:41;12.93;;;9.10;;
12163;SDS011;6145;50.192;10.064;2024-01-10T01:37:07;12.60;;;9.03;;
12163;SDS011;6145;50.192;10.064;2024-01-10T01:39:34;13.67;;;8.97;;
12163;SDS011;6145;50.192;10.064;2024-01-10T01:42:01;13.27;;;9.23;;
12163;SDS011;6145;50.192;10.064;2024-01-10T01:44:28;13.80;;;9.20;;
12163;SDS011;6145;50.192;10.064;2024-01-10T01:46:56;13.50;;;9.17;;
12163;SDS011;6145;50.192;10.064;2024-01-10T01:49:24;13.53;;;9.20;;
12163;SDS011;6145;50.192;10.064;2024-01-10T01:51:52;12.43;;;8.90;;
12163;SDS011;6145;50.192;10.064;2024-01-10T01:54:19;12.50;;;9.03;;
12163;SDS011;6145;50.192;10.064;2024-01-10T01:56:46;13.90;;;9.17;;
12163;SDS011;6145;50.192;10.064;2024-01-10T01:59:14;13.27;;;9.23;;
12163;SDS011;6145;50.192;10.064;2024-01-10T02:01:41;14.20;;;9.97;;
12163;SDS011;6145;50.192;10.064;2024-01-10T02:04:10;14.13;;;9.67;;
12163;SDS011;6145;50.192;10.064;2024-01-10T02:06:37;13.07;;;8.63;;
12163;SDS011;6145;50.192;10.064;2024-01-10T02:09:08;14.33;;;9.77;;
12163;SDS011;6145;50.192;10.064;2024-01-10T02:11:35;11.80;;;8.40;;
12163;SDS011;6145;50.192;10.064;2024-01-10T02:14:02;13.07;;;9.10;;
12163;SDS011;6145;50.192;10.064;2024-01-10T02:16:29;16.33;;;10.30;;
12163;SDS011;6145;50.192;10.064;2024-01-10T02:18:56;14.17;;;9.47;;
12163;SDS011;6145;50.192;10.064;2024-01-10T02:21:23;12.77;;;9.00;;
12163;SDS011;6145;50.192;10.064;2024-01-10T02:23:49;14.23;;;10.50;;
12163;SDS011;6145;50.192;10.064;2024-01-10T02:26:18;12.27;;;9.40;;
12163;SDS011;6145;50.192;10.064;2024-01-10T02:28:44;13.27;;;9.10;;
12163;SDS011;6145;50.192;10.064;2024-01-10T02:31:11;14.47;;;9.10;;
12163;SDS011;6145;50.192;10.064;2024-01-10T02:33:38;11.93;;;8.57;;
12163;SDS011;6145;50.192;10.064;2024-01-10T02:36:14;11.97;;;8.87;;
12163;SDS011;6145;50.192;10.064;2024-01-10T02:38:41;11.23;;;9.00;;
12163;SDS011;6145;50.192;10.064;2024-01-10T02:41:08;13.73;;;9.53;;
12163;SDS011;6145;50.192;10.064;2024-01-10T02:43:36;13.07;;;8.60;;
12163;SDS011;6145;50.192;10.064;2024-01-10T02:46:02;11.80;;;8.73;;
12163;SDS011;6145;50.192;10.064;2024-01-10T02:48:30;14.30;;;8.70;;
12163;SDS011;6145;50.192;10.064;2024-01-10T02:50:56;15.60;;;9.60;;
12163;SDS011;6145;50.192;10.064;2024-01-10T02:53:23;16.17;;;9.57;;
12163;SDS011;6145;50.192;10.064;2024-01-10T02:55:50;11.27;;;8.70;;
12163;SDS011;6145;50.192;10.064;2024-01-10T02:58:17;11.70;;;8.40;;
12163;SDS011;6145;50.192;10.064;2024-01-10T03:00:47;12.97;;;8.67;;
12163;SDS011;6145;50.192;10.064;2024-01-10T03:03:14;11.37;;;8.37;;
12163;SDS011;6145;50.192;10.064;2024-01-10T03:05:41;14.00;;;9.33;;
12163;SDS011;6145;50.192;10.064;2024-01-10T03:08:07;15.00;;;9.43;;
12163;SDS011;6145;50.192;10.064;2024-01-10T03:10:34;12.53;;;9.30;;
12163;SDS011;6145;50.192;10.064;2024-01-10T03:13:01;13.77;;;8.60;;
12163;SDS011;6145;50.192;10.064;2024-01-10T03:15:28;14.63;;;8.53;;
12163;SDS011;6145;50.192;10.064;2024-01-10T03:17:57;12.00;;;9.67;;
12163;SDS011;6145;50.192;10.064;2024-01-10T03:20:24;13.73;;;9.40;;
12163;SDS011;6145;50.192;10.064;2024-01-10T03:22:50;11.63;;;8.97;;
12163;SDS011;6145;50.192;10.064;2024-01-10T03:25:17;12.83;;;9.20;;
12163;SDS011;6145;50.192;10.064;2024-01-10T03:27:44;16.63;;;9.37;;
12163;SDS011;6145;50.192;10.064;2024-01-10T03:30:11;15.70;;;9.70;;
12163;SDS011;6145;50.192;10.064;2024-01-10T03:32:38;15.63;;;9.67;;
12163;SDS011;6145;50.192;10.064;2024-01-10T03:35:07;15.17;;;9.83;;
12163;SDS011;6145;50.192;10.064;2024-01-10T03:37:34;12.40;;;8.30;;
12163;SDS011;6145;50.192;10.064;2024-01-10T03:40:01;14.23;;;8.77;;
12163;SDS011;6145;50.192;10.064;2024-01-10T03:42:28;14.57;;;9.30;;
12163;SDS011;6145;50.192;10.064;2024-01-10T03:44:54;14.00;;;10.30;;
12163;SDS011;6145;50.192;10.064;2024-01-10T03:47:22;13.80;;;9.80;;
12163;SDS011;6145;50.192;10.064;2024-01-10T03:49:48;12.63;;;8.93;;
12163;SDS011;6145;50.192;10.064;2024-01-10T03:52:16;11.93;;;9.17;;
12163;SDS011;6145;50.192;10.064;2024-01-10T03:54:44;14.47;;;9.33;;
12163;SDS011;6145;50.192;10.064;2024-01-10T03:57:11;13.27;;;9.33;;
12163;SDS011;6145;50.192;10.064;2024-01-10T03:59:37;12.83;;;8.50;;
12163;SDS011;6145;50.192;10.064;2024-01-10T04:02:07;14.37;;;9.37;;
12163;SDS011;6145;50.192;10.064;2024-01-10T04:04:36;13.50;;;9.13;;
12163;SDS011;6145;50.192;10.064;2024-01-10T04:07:03;14.37;;;9.57;;
12163;SDS011;6145;50.192;10.064;2024-01-10T04:09:31;14.03;;;9.20;;
12163;SDS011;6145;50.192;10.064;2024-01-10T04:11:58;12.57;;;8.83;;
12163;SDS011;6145;50.192;10.064;2024-01-10T04:14:25;14.47;;;8.80;;
12163;SDS011;6145;50.192;10.064;2024-01-10T04:16:53;12.33;;;9.10;;
12163;SDS011;6145;50.192;10.064;2024-01-10T04:19:24;12.57;;;8.63;;
12163;SDS011;6145;50.192;10.064;2024-01-10T04:21:51;14.67;;;9.93;;
12163;SDS011;6145;50.192;10.064;2024-01-10T04:24:18;15.87;;;9.50;;
12163;SDS011;6145;50.192;10.064;2024-01-10T04:26:47;15.87;;;10.07;;
12163;SDS011;6145;50.192;10.064;2024-01-10T04:29:13;15.73;;;9.50;;
12163;SDS011;6145;50.192;10.064;2024-01-10T04:31:40;14.87;;;9.83;;
12163;SDS011;6145;50.192;10.064;2024-01-10T04:34:07;13.03;;;8.47;;
12163;SDS011;6145;50.192;10.064;2024-01-10T04:36:34;12.10;;;8.70;;
12163;SDS011;6145;50.192;10.064;2024-01-10T04:39:01;13.47;;;9.10;;
12163;SDS011;6145;50.192;10.064;2024-01-10T04:41:28;17.33;;;10.17;;
12163;SDS011;6145;50.192;10.064;2024-01-10T04:43:56;12.80;;;9.30;;
12163;SDS011;6145;50.192;10.064;2024-01-10T04:46:23;12.50;;;9.47;;
12163;SDS011;6145;50.192;10.064;2024-01-10T04:48:50;12.73;;;8.77;;
12163;SDS011;6145;50.192;10.064;2024-01-10T04:51:16;14.23;;;9.63;;
12163;SDS011;6145;50.192;10.064;2024-01-10T04:53:43;14.47;;;9.80;;
12163;SDS011;6145;50.192;10.064;2024-01-10T04:56:10;15.67;;;10.43;;
12163;SDS011;6145;50.192;10.064;2024-01-10T04:58:37;15.80;;;10.30;;
12163;SDS011;6145;50.192;10.064;2024-01-10T05:01:05;14.97;;;9.57;;
12163;SDS011;6145;50.192;10.064;2024-01-10T05:03:31;13.03;;;9.17;;
12163;SDS011;6145;50.192;10.064;2024-01-10T05:05:58;15.10;;;9.80;;
12163;SDS011;6145;50.192;10.064;2024-01-10T05:08:25;13.67;;;9.63;;
12163;SDS011;6145;50.192;10.064;2024-01-10T05:10:52;14.30;;;10.43;;
12163;SDS011;6145;50.192;10.064;2024-01-10T05:13:21;13.17;;;9.73;;
12163;SDS011;6145;50.192;10.064;2024-01-10T05:15:48;14.73;;;10.00;;
12163;SDS011;6145;50.192;10.064;2024-01-10T05:18:17;13.30;;;8.97;;
12163;SDS011;6145;50.192;10.064;2024-01-10T05:20:44;14.97;;;9.87;;
12163;SDS011;6145;50.192;10.064;2024-01-10T05:23:11;17.50;;;11.23;;
12163;SDS011;6145;50.192;10.064;2024-01-10T05:25:38;14.87;;;10.97;;
12163;SDS011;6145;50.192;10.064;2024-01-10T05:28:05;14.07;;;10.37;;
12163;SDS011;6145;50.192;10.064;2024-01-10T05:30:32;19.70;;;11.53;;
12163;SDS011;6145;50.192;10.064;2024-01-10T05:32:59;15.67;;;9.60;;
12163;SDS011;6145;50.192;10.064;2024-01-10T05:35:27;13.63;;;9.93;;
12163;SDS011;6145;50.192;10.064;2024-01-10T05:37:54;14.03;;;9.60;;
12163;SDS011;6145;50.192;10.064;2024-01-10T05:40:21;15.60;;;9.97;;
12163;SDS011;6145;50.192;10.064;2024-01-10T05:42:48;14.63;;;9.70;;
12163;SDS011;6145;50.192;10.064;2024-01-10T05:45:15;14.33;;;8.87;;
12163;SDS011;6145;50.192;10.064;2024-01-10T05:47:43;15.33;;;9.70;;
12163;SDS011;6145;50.192;10.064;2024-01-10T05:50:09;14.53;;;9.47;;
12163;SDS011;6145;50.192;10.064;2024-01-10T05:52:38;14.57;;;9.43;;
12163;SDS011;6145;50.192;10.064;2024-01-10T05:55:05;15.33;;;9.63;;
12163;SDS011;6145;50.192;10.064;2024-01-10T05:57:33;13.77;;;9.30;;
12163;SDS011;6145;50.192;10.064;2024-01-10T06:00:00;15.53;;;10.17;;
12163;SDS011;6145;50.192;10.064;2024-01-10T06:02:28;15.23;;;9.87;;
12163;SDS011;6145;50.192;10.064;2024-01-10T06:04:55;12.93;;;9.13;;
12163;SDS011;6145;50.192;10.064;2024-01-10T06:07:21;15.20;;;9.87;;
12163;SDS011;6145;50.192;10.064;2024-01-10T06:09:58;11.60;;;9.00;;
12163;SDS011;6145;50.192;10.064;2024-01-10T06:12:25;12.70;;;9.20;;
12163;SDS011;6145;50.192;10.064;2024-01-10T06:14:51;14.30;;;8.97;;
12163;SDS011;6145;50.192;10.064;2024-01-10T06:17:18;13.77;;;9.50;;
12163;SDS011;6145;50.192;10.064;2024-01-10T06:19:45;13.40;;;9.57;;
12163;SDS011;6145;50.192;10.064;2024-01-10T06:22:12;15.70;;;12.20;;
12163;SDS011;6145;50.192;10.064;2024-01-10T06:24:39;14.60;;;9.63;;
12163;SDS011;6145;50.192;10.064;2024-01-10T06:27:08;12.50;;;8.83;;
12163;SDS011;6145;50.192;10.064;2024-01-10T06:29:34;12.53;;;9.73;;
12163;SDS011;6145;50.192;10.064;2024-01-10T06:32:02;13.67;;;9.37;;
12163;SDS011;6145;50.192;10.064;2024-01-10T06:34:31;13.63;;;10.20;;
12163;SDS011;6145;50.192;10.064;2024-01-10T06:36:58;12.17;;;8.73;;
12163;SDS011;6145;50.192;10.064;2024-01-10T06:39:25;14.50;;;8.93;;
12163;SDS011;6145;50.192;10.064;2024-01-10T06:41:54;12.50;;;9.57;;
12163;SDS011;6145;50.192;10.064;2024-01-10T06:44:24;13.63;;;9.07;;
12163;SDS011;6145;50.192;10.064;2024-01-10T06:46:52;12.97;;;9.90;;
12163;SDS011;6145;50.192;10.064;2024-01-10T06:49:19;14.13;;;8.63;;
12163;SDS011;6145;50.192;10.064;2024-01-10T06:51:46;16.17;;;10.27;;
12163;SDS011;6145;50.192;10.064;2024-01-10T06:54:13;13.63;;;9.63;;
12163;SDS011;6145;50.192;10.064;2024-01-10T06:56:40;13.73;;;9.77;;
12163;SDS011;6145;50.192;10.064;2024-01-10T06:59:07;16.07;;;10.33;;
12163;SDS011;6145;50.192;10.064;2024-01-10T07:01:36;15.63;;;9.70;;
12163;SDS011;6145;50.192;10.064;2024-01-10T07:04:04;14.20;;;10.03;;
12163;SDS011;6145;50.192;10.064;2024-01-10T07:06:31;13.77;;;9.37;;
12163;SDS011;6145;50.192;10.064;2024-01-10T07:09:00;14.67;;;9.63;;
12163;SDS011;6145;50.192;10.064;2024-01-10T07:11:30;16.30;;;11.40;;
12163;SDS011;6145;50.192;10.064;2024-01-10T07:13:57;13.83;;;9.77;;
12163;SDS011;6145;50.192;10.064;2024-01-10T07:16:24;13.87;;;8.73;;
12163;SDS011;6145;50.192;10.064;2024-01-10T07:18:54;12.87;;;9.07;;
12163;SDS011;6145;50.192;10.064;2024-01-10T07:21:20;15.70;;;9.73;;
12163;SDS011;6145;50.192;10.064;2024-01-10T07:23:47;14.40;;;9.40;;
12163;SDS011;6145;50.192;10.064;2024-01-10T07:26:15;14.23;;;9.83;;
12163;SDS011;6145;50.192;10.064;2024-01-10T07:28:42;18.07;;;10.87;;
12163;SDS011;6145;50.192;10.064;2024-01-10T07:31:11;16.30;;;9.87;;
12163;SDS011;6145;50.192;10.064;2024-01-10T07:33:38;14.63;;;10.30;;
12163;SDS011;6145;50.192;10.064;2024-01-10T07:36:08;15.83;;;11.07;;
12163;SDS011;6145;50.192;10.064;2024-01-10T07:38:35;14.10;;;10.00;;
12163;SDS011;6145;50.192;10.064;2024-01-10T07:41:05;14.23;;;9.93;;
12163;SDS011;6145;50.192;10.064;2024-01-10T07:43:32;13.97;;;10.13;;
12163;SDS011;6145;50.192;10.064;2024-01-10T07:46:01;14.23;;;11.03;;
12163;SDS011;6145;50.192;10.064;2024-01-10T07:48:28;19.27;;;10.67;;
12163;SDS011;6145;50.192;10.064;2024-01-10T07:50:56;16.13;;;10.53;;
12163;SDS011;6145;50.192;10.064;2024-01-10T07:53:24;15.03;;;10.73;;
12163;SDS011;6145;50.192;10.064;2024-01-10T07:55:51;16.13;;;10.20;;
12163;SDS011;6145;50.192;10.064;2024-01-10T07:58:18;14.87;;;11.03;;
12163;SDS011;6145;50.192;10.064;2024-01-10T08:00:45;15.50;;;11.03;;
12163;SDS011;6145;50.192;10.064;2024-01-10T08:03:12;16.43;;;10.27;;
12163;SDS011;6145;50.192;10.064;2024-01-10T08:05:39;16.53;;;11.50;;
12163;SDS011;6145;50.192;10.064;2024-01-10T08:08:06;15.17;;;10.50;;
12163;SDS011;6145;50.192;10.064;2024-01-10T08:10:34;15.50;;;10.77;;
12163;SDS011;6145;50.192;10.064;2024-01-10T08:13:01;15.97;;;10.33;;
12163;SDS011;6145;50.192;10.064;2024-01-10T08:15:28;13.93;;;10.13;;
12163;SDS011;6145;50.192;10.064;2024-01-10T08:17:59;15.90;;;10.50;;
12163;SDS011;6145;50.192;10.064;2024-01-10T08:20:28;15.63;;;10.13;;
12163;SDS011;6145;50.192;10.064;2024-01-10T08:22:55;15.50;;;10.40;;
12163;SDS011;6145;50.192;10.064;2024-01-10T08:25:23;16.07;;;10.10;;
12163;SDS011;6145;50.192;10.064;2024-01-10T08:27:51;20.83;;;11.87;;
12163;SDS011;6145;50.192;10.064;2024-01-10T08:30:19;18.40;;;11.73;;
12163;SDS011;6145;50.192;10.064;2024-01-10T08:32:46;15.13;;;11.37;;
12163;SDS011;6145;50.192;10.064;2024-01-10T08:35:13;14.87;;;11.40;;
12163;SDS011;6145;50.192;10.064;2024-01-10T08:37:40;15.67;;;10.97;;
12163;SDS011;6145;50.192;10.064;2024-01-10T08:40:08;17.60;;;11.67;;
12163;SDS011;6145;50.192;10.064;2024-01-10T08:42:37;15.43;;;11.00;;
12163;SDS011;6145;50.192;10.064;2024-01-10T08:45:06;17.73;;;11.00;;
12163;SDS011;6145;50.192;10.064;2024-01-10T08:47:34;16.13;;;11.60;;
12163;SDS011;6145;50.192;10.064;2024-01-10T08:50:01;15.20;;;10.30;;
12163;SDS011;6145;50.192;10.064;2024-01-10T08:52:30;16.57;;;11.33;;
12163;SDS011;6145;50.192;10.064;2024-01-10T08:54:56;17.97;;;11.03;;
12163;SDS011;6145;50.192;10.064;2024-01-10T08:57:24;17.83;;;11.30;;
12163;SDS011;6145;50.192;10.064;2024-01-10T08:59:52;17.70;;;10.87;;
12163;SDS011;6145;50.192;10.064;2024-01-10T09:02:20;13.47;;;10.70;;
12163;SDS011;6145;50.192;10.064;2024-01-10T09:04:48;17.17;;;11.23;;
12163;SDS011;6145;50.192;10.064;2024-01-10T09:07:15;16.73;;;11.13;;
12163;SDS011;6145;50.192;10.064;2024-01-10T09:09:43;16.57;;;10.67;;
12163;SDS011;6145;50.192;10.064;2024-01-10T09:12:09;16.57;;;10.97;;
12163;SDS011;6145;50.192;10.064;2024-01-10T09:14:36;15.13;;;10.80;;
12163;SDS011;6145;50.192;10.064;2024-01-10T09:17:03;14.70;;;10.23;;
12163;SDS011;6145;50.192;10.064;2024-01-10T09:19:31;16.50;;;11.10;;
12163;SDS011;6145;50.192;10.064;2024-01-10T09:21:58;14.77;;;9.17;;
12163;SDS011;6145;50.192;10.064;2024-01-10T09:24:25;13.43;;;9.93;;
12163;SDS011;6145;50.192;10.064;2024-01-10T09:26:52;16.23;;;9.73;;
12163;SDS011;6145;50.192;10.064;2024-01-10T09:29:19;14.20;;;9.87;;
12163;SDS011;6145;50.192;10.064;2024-01-10T09:31:46;15.97;;;9.97;;
12163;SDS011;6145;50.192;10.064;2024-01-10T09:34:13;15.90;;;10.03;;
12163;SDS011;6145;50.192;10.064;2024-01-10T09:36:41;14.47;;;10.63;;
12163;SDS011;6145;50.192;10.064;2024-01-10T09:39:08;14.23;;;9.70;;
12163;SDS011;6145;50.192;10.064;2024-01-10T09:41:40;13.97;;;9.83;;
12163;SDS011;6145;50.192;10.064;2024-01-10T09:44:11;15.60;;;10.30;;
12163;SDS011;6145;50.192;10.064;2024-01-10T09:46:38;14.40;;;10.03;;
12163;SDS011;6145;50.192;10.064;2024-01-10T09:49:09;14.93;;;9.43;;
12163;SDS011;6145;50.192;10.064;2024-01-10T09:51:35;14.63;;;9.80;;
12163;SDS011;6145;50.192;10.064;2024-01-10T09:54:04;13.23;;;9.90;;
12163;SDS011;6145;50.192;10.064;2024-01-10T09:56:32;14.07;;;9.30;;
12163;SDS011;6145;50.192;10.064;2024-01-10T09:58:59;16.10;;;9.73;;
12163;SDS011;6145;50.192;10.064;2024-01-10T10:01:29;14.87;;;9.97;;
12163;SDS011;6145;50.192;10.064;2024-01-10T10:03:57;16.77;;;10.50;;
12163;SDS011;6145;50.192;10.064;2024-01-10T10:06:25;12.60;;;9.20;;
12163;SDS011;6145;50.192;10.064;2024-01-10T10:08:52;15.30;;;10.60;;
12163;SDS011;6145;50.192;10.064;2024-01-10T10:11:22;12.50;;;9.67;;
12163;SDS011;6145;50.192;10.064;2024-01-10T10:13:49;14.80;;;10.40;;
12163;SDS011;6145;50.192;10.064;2024-01-10T10:16:22;15.40;;;9.90;;
12163;SDS011;6145;50.192;10.064;2024-01-10T10:18:50;14.13;;;10.37;;
12163;SDS011;6145;50.192;10.064;2024-01-10T10:21:18;15.00;;;9.70;;
12163;SDS011;6145;50.192;10.064;2024-01-10T10:23:56;14.93;;;10.47;;
12163;SDS011;6145;50.192;10.064;2024-01-10T10:26:26;16.40;;;10.93;;
12163;SDS011;6145;50.192;10.064;2024-01-10T10:28:54;15.23;;;10.67;;
12163;SDS011;6145;50.192;10.064;2024-01-10T10:31:22;17.50;;;11.40;;
12163;SDS011;6145;50.192;10.064;2024-01-10T10:33:49;13.80;;;10.10;;
12163;SDS011;6145;50.192;10.064;2024-01-10T10:36:17;15.67;;;10.20;;
12163;SDS011;6145;50.192;10.064;2024-01-10T10:38:46;14.40;;;10.40;;
12163;SDS011;6145;50.192;10.064;2024-01-10T10:41:13;14.37;;;10.20;;
12163;SDS011;6145;50.192;10.064;2024-01-10T10:43:42;13.73;;;9.77;;
12163;SDS011;6145;50.192;10.064;2024-01-10T10:46:09;14.73;;;10.70;;
12163;SDS011;6145;50.192;10.064;2024-01-10T10:48:37;15.30;;;11.00;;
12163;SDS011;6145;50.192;10.064;2024-01-10T10:51:05;15.13;;;10.73;;
12163;SDS011;6145;50.192;10.064;2024-01-10T10:53:34;15.43;;;10.93;;
12163;SDS011;6145;50.192;10.064;2024-01-10T10:56:02;14.07;;;10.30;;
12163;SDS011;6145;50.192;10.064;2024-01-10T10:58:30;14.70;;;10.40;;
12163;SDS011;6145;50.192;10.064;2024-01-10T11:01:01;16.53;;;10.00;;
12163;SDS011;6145;50.192;10.064;2024-01-10T11:03:31;15.73;;;9.90;;
12163;SDS011;6145;50.192;10.064;2024-01-10T11:06:01;14.07;;;9.97;;
12163;SDS011;6145;50.192;10.064;2024-01-10T11:08:29;14.10;;;11.30;;
12163;SDS011;6145;50.192;10.064;2024-01-10T11:11:00;12.00;;;9.97;;
12163;SDS011;6145;50.192;10.064;2024-01-10T11:13:35;13.37;;;10.40;;
12163;SDS011;6145;50.192;10.064;2024-01-10T11:19:16;14.03;;;9.80;;
12163;SDS011;6145;50.192;10.064;2024-01-10T11:22:10;13.77;;;9.77;;
12163;SDS011;6145;50.192;10.064;2024-01-10T11:24:48;14.03;;;10.50;;
12163;SDS011;6145;50.192;10.064;2024-01-10T11:27:16;14.80;;;10.03;;
12163;SDS011;6145;50.192;10.064;2024-01-10T11:29:43;14.73;;;9.93;;
12163;SDS011;6145;50.192;10.064;2024-01-10T11:32:14;15.00;;;10.10;;
12163;SDS011;6145;50.192;10.064;2024-01-10T11:34:48;14.03;;;10.53;;
12163;SDS011;6145;50.192;10.064;2024-01-10T11:37:24;13.87;;;9.57;;
12163;SDS011;6145;50.192;10.064;2024-01-10T11:39:54;15.50;;;9.43;;
12163;SDS011;6145;50.192;10.064;2024-01-10T11:42:22;13.07;;;9.67;;
12163;SDS011;6145;50.192;10.064;2024-01-10T11:44:50;14.23;;;10.00;;
12163;SDS011;6145;50.192;10.064;2024-01-10T11:47:20;13.67;;;9.83;;
12163;SDS011;6145;50.192;10.064;2024-01-10T11:49:53;14.50;;;9.53;;
12163;SDS011;6145;50.192;10.064;2024-01-10T11:52:22;14.77;;;9.73;;
12163;SDS011;6145;50.192;10.064;2024-01-10T11:54:49;13.93;;;9.73;;
12163;SDS011;6145;50.192;10.064;2024-01-10T11:57:19;12.93;;;8.93;;
12163;SDS011;6145;50.192;10.064;2024-01-10T11:59:47;13.17;;;9.33;;
12163;SDS011;6145;50.192;10.064;2024-01-10T12:02:18;14.93;;;10.23;;
12163;SDS011;6145;50.192;10.064;2024-01-10T12:04:47;13.40;;;9.93;;
12163;SDS011;6145;50.192;10.064;2024-01-10T12:07:14;14.33;;;9.27;;
12163;SDS011;6145;50.192;10.064;2024-01-10T12:09:42;12.83;;;8.43;;
12163;SDS011;6145;50.192;10.064;2024-01-10T12:12:08;12.90;;;9.33;;
12163;SDS011;6145;50.192;10.064;2024-01-10T12:14:36;16.73;;;10.20;;
12163;SDS011;6145;50.192;10.064;2024-01-10T12:17:03;14.83;;;9.80;;
12163;SDS011;6145;50.192;10.064;2024-01-10T12:19:34;13.30;;;10.33;;
12163;SDS011;6145;50.192;10.064;2024-01-10T12:22:02;12.63;;;9.10;;
12163;SDS011;6145;50.192;10.064;2024-01-10T12:24:30;17.00;;;9.80;;
12163;SDS011;6145;50.192;10.064;2024-01-10T12:26:57;12.90;;;9.37;;
12163;SDS011;6145;50.192;10.064;2024-01-10T12:29:24;13.40;;;9.33;;
12163;SDS011;6145;50.192;10.064;2024-01-10T12:31:52;13.43;;;9.10;;
12163;SDS011;6145;50.192;10.064;2024-01-10T12:34:19;12.20;;;8.67;;
12163;SDS011;6145;50.192;10.064;2024-01-10T12:36:48;10.50;;;8.27;;
12163;SDS011;6145;50.192;10.064;2024-01-10T12:39:15;13.87;;;9.13;;
12163;SDS011;6145;50.192;10.064;2024-01-10T12:41:53;13.67;;;9.50;;
12163;SDS011;6145;50.192;10.064;2024-01-10T12:44:20;12.37;;;9.30;;
12163;SDS011;6145;50.192;10.064;2024-01-10T12:46:50;14.93;;;10.53;;
12163;SDS011;6145;50.192;10.064;2024-01-10T12:49:18;13.97;;;10.60;;
12163;SDS011;6145;50.192;10.064;2024-01-10T12:51:44;14.43;;;9.13;;
12163;SDS011;6145;50.192;10.064;2024-01-10T12:54:14;15.80;;;9.97;;
12163;SDS011;6145;50.192;10.064;2024-01-10T12:56:42;13.93;;;9.67;;
12163;SDS011;6145;50.192;10.064;2024-01-10T12:59:09;13.57;;;8.07;;
12163;SDS011;6145;50.192;10.064;2024-01-10T13:01:36;15.23;;;9.53;;
12163;SDS011;6145;50.192;10.064;2024-01-10T13:04:03;13.47;;;8.77;;
12163;SDS011;6145;50.192;10.064;2024-01-10T13:06:31;13.90;;;7.57;;
12163;SDS011;6145;50.192;10.064;2024-01-10T13:08:57;13.77;;;6.87;;
12163;SDS011;6145;50.192;10.064;2024-01-10T13:11:25;11.53;;;7.10;;
12163;SDS011;6145;50.192;10.064;2024-01-10T13:13:52;7.57;;;3.97;;
12163;SDS011;6145;50.192;10.064;2024-01-10T13:16:19;16.60;;;8.70;;
12163;SDS011;6145;50.192;10.064;2024-01-10T13:18:46;4.40;;;3.23;;
12163;SDS011;6145;50.192;10.064;2024-01-10T13:21:12;8.43;;;6.03;;
12163;SDS011;6145;50.192;10.064;2024-01-10T13:23:39;14.00;;;7.53;;
12163;SDS011;6145;50.192;10.064;2024-01-10T13:26:07;12.30;;;7.87;;
12163;SDS011;6145;50.192;10.064;2024-01-10T13:28:36;12.73;;;7.93;;
12163;SDS011;6145;50.192;10.064;2024-01-10T13:31:03;12.53;;;7.73;;
12163;SDS011;6145;50.192;10.064;2024-01-10T13:33:29;10.20;;;6.40;;
12163;SDS011;6145;50.192;10.064;2024-01-10T13:35:56;11.60;;;4.70;;
12163;SDS011;6145;50.192;10.064;2024-01-10T13:38:24;6.63;;;4.37;;
12163;SDS011;6145;50.192;10.064;2024-01-10T13:40:51;12.10;;;6.90;;
12163;SDS011;6145;50.192;10.064;2024-01-10T13:43:18;13.30;;;7.27;;
12163;SDS011;6145;50.192;10.064;2024-01-10T13:45:46;13.40;;;6.47;;
12163;SDS011;6145;50.192;10.064;2024-01-10T13:48:13;10.90;;;6.60;;
12163;SDS011;6145;50.192;10.064;2024-01-10T13:50:41;10.23;;;5.77;;
12163;SDS011;6145;50.192;10.064;2024-01-10T13:53:08;12.40;;;6.60;;
12163;SDS011;6145;50.192;10.064;2024-01-10T13:55:35;12.40;;;7.23;;
12163;SDS011;6145;50.192;10.064;2024-01-10T13:58:02;10.50;;;6.90;;
12163;SDS011;6145;50.192;10.064;2024-01-10T14:00:29;9.97;;;7.17;;
12163;SDS011;6145;50.192;10.064;2024-01-10T14:02:57;11.60;;;5.67;;
12163;SDS011;6145;50.192;10.064;2024-01-10T14:05:25;10.33;;;5.47;;
12163;SDS011;6145;50.192;10.064;2024-01-10T14:07:52;10.70;;;6.60;;
12163;SDS011;6145;50.192;10.064;2024-01-10T14:10:19;10.03;;;6.50;;
12163;SDS011;6145;50.192;10.064;2024-01-10T14:12:46;11.60;;;6.20;;
12163;SDS011;6145;50.192;10.064;2024-01-10T14:15:13;11.57;;;6.77;;
12163;SDS011;6145;50.192;10.064;2024-01-10T14:17:40;13.43;;;7.23;;
12163;SDS011;6145;50.192;10.064;2024-01-10T14:20:09;10.70;;;6.83;;
12163;SDS011;6145;50.192;10.064;2024-01-10T14:22:38;12.03;;;7.03;;
12163;SDS011;6145;50.192;10.064;2024-01-10T14:25:06;10.53;;;6.80;;
12163;SDS011;6145;50.192;10.064;2024-01-10T14:27:34;11.80;;;6.97;;
12163;SDS011;6145;50.192;10.064;2024-01-10T14:30:03;12.27;;;6.60;;
12163;SDS011;6145;50.192;10.064;2024-01-10T14:32:33;15.60;;;8.13;;
12163;SDS011;6145;50.192;10.064;2024-01-10T14:35:00;10.80;;;7.17;;
12163;SDS011;6145;50.192;10.064;2024-01-10T14:37:28;12.53;;;7.90;;